sensor_id;sensor_type;location;lat;lon;timestamp;temperature;humidity
28548;DHT22;15750;49.600;8.746;2022-10-16T00:01:14;21.80;69.30
28548;DHT22;15750;49.600;8.746;2022-10-16T00:04:03;21.80;69.30
28548;DHT22;15750;49.600;8.746;2022-10-16T00:06:51;21.80;69.30
28548;DHT22;15750;49.600;8.746;2022-10-16T00:09:38;21.80;69.30
28548;DHT22;15750;49.600;8.746;2022-10-16T00:12:25;21.80;69.30
28548;DHT22;15750;49.600;8.746;2022-10-16T00:15:14;21.80;69.30
28548;DHT22;15750;49.600;8.746;2022-10-16T00:18:02;21.80;69.30
28548;DHT22;15750;49.600;8.746;2022-10-16T00:20:51;21.80;69.20
28548;DHT22;15750;49.600;8.746;2022-10-16T00:23:38;21.80;69.20
28548;DHT22;15750;49.600;8.746;2022-10-16T00:26:26;21.80;69.20
28548;DHT22;15750;49.600;8.746;2022-10-16T00:29:15;21.80;69.20
28548;DHT22;15750;49.600;8.746;2022-10-16T00:32:03;21.80;69.20
28548;DHT22;15750;49.600;8.746;2022-10-16T00:34:51;21.80;69.20
28548;DHT22;15750;49.600;8.746;2022-10-16T00:37:40;21.80;69.20
28548;DHT22;15750;49.600;8.746;2022-10-16T00:40:27;21.80;69.20
28548;DHT22;15750;49.600;8.746;2022-10-16T00:43:33;21.80;69.20
28548;DHT22;15750;49.600;8.746;2022-10-16T00:46:24;21.80;69.30
28548;DHT22;15750;49.600;8.746;2022-10-16T00:49:15;21.80;69.10
28548;DHT22;15750;49.600;8.746;2022-10-16T00:52:05;21.80;69.10
28548;DHT22;15750;49.600;8.746;2022-10-16T00:54:53;21.80;69.20
28548;DHT22;15750;49.600;8.746;2022-10-16T00:57:42;21.80;69.10
28548;DHT22;15750;49.600;8.746;2022-10-16T01:00:30;21.80;69.10
28548;DHT22;15750;49.600;8.746;2022-10-16T01:03:27;21.80;69.00
28548;DHT22;15750;49.600;8.746;2022-10-16T01:06:23;21.80;69.30
28548;DHT22;15750;49.600;8.746;2022-10-16T01:09:15;21.80;69.20
28548;DHT22;15750;49.600;8.746;2022-10-16T01:12:10;21.80;69.10
28548;DHT22;15750;49.600;8.746;2022-10-16T01:15:04;21.80;69.20
28548;DHT22;15750;49.600;8.746;2022-10-16T01:17:59;21.80;69.10
28548;DHT22;15750;49.600;8.746;2022-10-16T01:20:50;21.80;69.00
28548;DHT22;15750;49.600;8.746;2022-10-16T01:23:48;21.80;69.00
28548;DHT22;15750;49.600;8.746;2022-10-16T01:26:58;21.80;69.20
28548;DHT22;15750;49.600;8.746;2022-10-16T01:29:55;21.80;69.00
28548;DHT22;15750;49.600;8.746;2022-10-16T01:32:49;21.80;68.80
28548;DHT22;15750;49.600;8.746;2022-10-16T01:35:41;21.80;69.00
28548;DHT22;15750;49.600;8.746;2022-10-16T01:38:34;21.80;69.00
28548;DHT22;15750;49.600;8.746;2022-10-16T01:41:26;21.80;69.00
28548;DHT22;15750;49.600;8.746;2022-10-16T01:44:20;21.80;69.00
28548;DHT22;15750;49.600;8.746;2022-10-16T01:47:10;21.80;69.00
28548;DHT22;15750;49.600;8.746;2022-10-16T01:50:02;21.80;69.00
28548;DHT22;15750;49.600;8.746;2022-10-16T01:52:52;21.80;68.90
28548;DHT22;15750;49.600;8.746;2022-10-16T01:55:43;21.80;69.00
28548;DHT22;15750;49.600;8.746;2022-10-16T01:58:34;21.80;69.10
28548;DHT22;15750;49.600;8.746;2022-10-16T02:01:26;21.80;69.00
28548;DHT22;15750;49.600;8.746;2022-10-16T02:04:19;21.80;69.00
28548;DHT22;15750;49.600;8.746;2022-10-16T02:07:10;21.80;69.00
28548;DHT22;15750;49.600;8.746;2022-10-16T02:09:59;21.80;69.00
28548;DHT22;15750;49.600;8.746;2022-10-16T02:12:50;21.80;69.00
28548;DHT22;15750;49.600;8.746;2022-10-16T02:15:42;21.80;69.00
28548;DHT22;15750;49.600;8.746;2022-10-16T02:18:31;21.80;69.00
28548;DHT22;15750;49.600;8.746;2022-10-16T02:21:24;21.80;69.00
28548;DHT22;15750;49.600;8.746;2022-10-16T02:24:18;21.90;69.00
28548;DHT22;15750;49.600;8.746;2022-10-16T02:27:12;21.80;69.00
28548;DHT22;15750;49.600;8.746;2022-10-16T02:30:06;21.80;69.00
28548;DHT22;15750;49.600;8.746;2022-10-16T02:32:58;21.80;69.00
28548;DHT22;15750;49.600;8.746;2022-10-16T02:35:49;21.80;68.80
28548;DHT22;15750;49.600;8.746;2022-10-16T02:38:38;21.80;68.90
28548;DHT22;15750;49.600;8.746;2022-10-16T02:41:26;21.80;68.80
28548;DHT22;15750;49.600;8.746;2022-10-16T02:44:13;21.80;68.90
28548;DHT22;15750;49.600;8.746;2022-10-16T02:47:00;21.80;68.90
28548;DHT22;15750;49.600;8.746;2022-10-16T02:49:48;21.90;69.00
28548;DHT22;15750;49.600;8.746;2022-10-16T02:52:36;21.80;69.00
28548;DHT22;15750;49.600;8.746;2022-10-16T02:55:23;21.80;69.00
28548;DHT22;15750;49.600;8.746;2022-10-16T02:58:11;21.80;68.90
28548;DHT22;15750;49.600;8.746;2022-10-16T03:00:59;21.80;68.90
28548;DHT22;15750;49.600;8.746;2022-10-16T03:03:46;21.80;69.00
28548;DHT22;15750;49.600;8.746;2022-10-16T03:06:34;21.80;68.90
28548;DHT22;15750;49.600;8.746;2022-10-16T03:09:23;21.80;69.80
28548;DHT22;15750;49.600;8.746;2022-10-16T03:12:10;21.80;69.10
28548;DHT22;15750;49.600;8.746;2022-10-16T03:14:57;21.80;69.00
28548;DHT22;15750;49.600;8.746;2022-10-16T03:17:45;21.80;68.90
28548;DHT22;15750;49.600;8.746;2022-10-16T03:20:32;21.80;68.80
28548;DHT22;15750;49.600;8.746;2022-10-16T03:23:19;21.80;68.80
28548;DHT22;15750;49.600;8.746;2022-10-16T03:26:08;21.80;68.80
28548;DHT22;15750;49.600;8.746;2022-10-16T03:28:55;21.80;68.70
28548;DHT22;15750;49.600;8.746;2022-10-16T03:31:42;21.80;68.70
28548;DHT22;15750;49.600;8.746;2022-10-16T03:34:29;21.80;68.80
28548;DHT22;15750;49.600;8.746;2022-10-16T03:37:17;21.80;68.70
28548;DHT22;15750;49.600;8.746;2022-10-16T03:40:05;21.80;68.70
28548;DHT22;15750;49.600;8.746;2022-10-16T03:42:54;21.90;68.70
28548;DHT22;15750;49.600;8.746;2022-10-16T03:45:43;21.90;68.70
28548;DHT22;15750;49.600;8.746;2022-10-16T03:48:30;21.80;68.70
28548;DHT22;15750;49.600;8.746;2022-10-16T03:51:17;21.80;68.60
28548;DHT22;15750;49.600;8.746;2022-10-16T03:54:05;21.80;68.60
28548;DHT22;15750;49.600;8.746;2022-10-16T03:56:52;21.90;68.70
28548;DHT22;15750;49.600;8.746;2022-10-16T03:59:41;21.80;68.70
28548;DHT22;15750;49.600;8.746;2022-10-16T04:02:28;21.80;68.50
28548;DHT22;15750;49.600;8.746;2022-10-16T04:05:15;21.80;68.70
28548;DHT22;15750;49.600;8.746;2022-10-16T04:08:03;21.80;68.60
28548;DHT22;15750;49.600;8.746;2022-10-16T04:10:50;21.80;68.70
28548;DHT22;15750;49.600;8.746;2022-10-16T04:13:38;21.80;68.60
28548;DHT22;15750;49.600;8.746;2022-10-16T04:16:27;21.80;68.50
28548;DHT22;15750;49.600;8.746;2022-10-16T04:19:14;21.80;68.50
28548;DHT22;15750;49.600;8.746;2022-10-16T04:22:02;21.80;68.50
28548;DHT22;15750;49.600;8.746;2022-10-16T04:24:49;21.80;68.50
28548;DHT22;15750;49.600;8.746;2022-10-16T04:27:36;21.80;68.50
28548;DHT22;15750;49.600;8.746;2022-10-16T04:30:29;21.80;68.50
28548;DHT22;15750;49.600;8.746;2022-10-16T04:33:18;21.80;68.50
28548;DHT22;15750;49.600;8.746;2022-10-16T04:36:05;21.80;68.70
28548;DHT22;15750;49.600;8.746;2022-10-16T04:38:53;21.80;68.60
28548;DHT22;15750;49.600;8.746;2022-10-16T04:41:40;21.80;68.80
28548;DHT22;15750;49.600;8.746;2022-10-16T04:44:28;21.80;68.70
28548;DHT22;15750;49.600;8.746;2022-10-16T04:47:15;21.80;68.60
28548;DHT22;15750;49.600;8.746;2022-10-16T04:50:04;21.80;68.60
28548;DHT22;15750;49.600;8.746;2022-10-16T04:52:52;21.80;68.50
28548;DHT22;15750;49.600;8.746;2022-10-16T04:55:41;21.80;68.50
28548;DHT22;15750;49.600;8.746;2022-10-16T04:58:28;21.80;68.50
28548;DHT22;15750;49.600;8.746;2022-10-16T05:01:16;21.80;68.40
28548;DHT22;15750;49.600;8.746;2022-10-16T05:04:03;21.80;68.40
28548;DHT22;15750;49.600;8.746;2022-10-16T05:06:52;21.80;68.40
28548;DHT22;15750;49.600;8.746;2022-10-16T05:09:39;21.80;68.40
28548;DHT22;15750;49.600;8.746;2022-10-16T05:12:26;21.80;68.30
28548;DHT22;15750;49.600;8.746;2022-10-16T05:15:14;21.80;68.30
28548;DHT22;15750;49.600;8.746;2022-10-16T05:18:01;21.80;68.30
28548;DHT22;15750;49.600;8.746;2022-10-16T05:20:48;21.80;68.40
28548;DHT22;15750;49.600;8.746;2022-10-16T05:23:40;21.80;68.30
28548;DHT22;15750;49.600;8.746;2022-10-16T05:26:27;21.80;68.30
28548;DHT22;15750;49.600;8.746;2022-10-16T05:29:14;21.80;68.40
28548;DHT22;15750;49.600;8.746;2022-10-16T05:32:01;21.80;68.40
28548;DHT22;15750;49.600;8.746;2022-10-16T05:34:48;21.80;68.40
28548;DHT22;15750;49.600;8.746;2022-10-16T05:37:37;21.80;68.40
28548;DHT22;15750;49.600;8.746;2022-10-16T05:40:26;21.80;68.40
28548;DHT22;15750;49.600;8.746;2022-10-16T05:43:13;21.80;68.30
28548;DHT22;15750;49.600;8.746;2022-10-16T05:46:02;21.80;68.20
28548;DHT22;15750;49.600;8.746;2022-10-16T05:48:52;21.80;68.20
28548;DHT22;15750;49.600;8.746;2022-10-16T05:51:40;21.80;68.20
28548;DHT22;15750;49.600;8.746;2022-10-16T05:54:27;21.80;68.20
28548;DHT22;15750;49.600;8.746;2022-10-16T05:57:16;21.80;68.20
28548;DHT22;15750;49.600;8.746;2022-10-16T06:00:04;21.80;68.30
28548;DHT22;15750;49.600;8.746;2022-10-16T06:02:57;21.80;68.40
28548;DHT22;15750;49.600;8.746;2022-10-16T06:05:26;21.80;68.20
28548;DHT22;15750;49.600;8.746;2022-10-16T06:07:55;21.70;68.20
28548;DHT22;15750;49.600;8.746;2022-10-16T06:10:23;21.70;68.20
28548;DHT22;15750;49.600;8.746;2022-10-16T06:12:53;21.80;68.20
28548;DHT22;15750;49.600;8.746;2022-10-16T06:15:22;21.70;68.20
28548;DHT22;15750;49.600;8.746;2022-10-16T06:17:51;21.70;68.20
28548;DHT22;15750;49.600;8.746;2022-10-16T06:20:19;21.80;68.20
28548;DHT22;15750;49.600;8.746;2022-10-16T06:22:48;21.80;68.10
28548;DHT22;15750;49.600;8.746;2022-10-16T06:25:17;21.80;68.10
28548;DHT22;15750;49.600;8.746;2022-10-16T06:27:46;21.80;68.10
28548;DHT22;15750;49.600;8.746;2022-10-16T06:30:16;21.80;68.20
28548;DHT22;15750;49.600;8.746;2022-10-16T06:32:45;21.80;68.20
28548;DHT22;15750;49.600;8.746;2022-10-16T06:35:13;21.80;68.30
28548;DHT22;15750;49.600;8.746;2022-10-16T06:37:42;21.80;68.30
28548;DHT22;15750;49.600;8.746;2022-10-16T06:40:11;21.80;68.30
28548;DHT22;15750;49.600;8.746;2022-10-16T06:42:41;21.80;68.30
28548;DHT22;15750;49.600;8.746;2022-10-16T06:45:10;21.80;68.30
28548;DHT22;15750;49.600;8.746;2022-10-16T06:47:41;21.80;68.40
28548;DHT22;15750;49.600;8.746;2022-10-16T06:50:09;21.80;68.40
28548;DHT22;15750;49.600;8.746;2022-10-16T06:52:38;21.80;68.40
28548;DHT22;15750;49.600;8.746;2022-10-16T06:55:07;21.80;68.50
28548;DHT22;15750;49.600;8.746;2022-10-16T06:57:36;21.80;68.40
28548;DHT22;15750;49.600;8.746;2022-10-16T07:00:06;21.80;68.40
28548;DHT22;15750;49.600;8.746;2022-10-16T07:02:35;21.80;68.50
28548;DHT22;15750;49.600;8.746;2022-10-16T07:05:05;21.80;68.40
28548;DHT22;15750;49.600;8.746;2022-10-16T07:07:35;21.80;68.40
28548;DHT22;15750;49.600;8.746;2022-10-16T07:10:04;21.80;68.40
28548;DHT22;15750;49.600;8.746;2022-10-16T07:12:33;21.80;68.70
28548;DHT22;15750;49.600;8.746;2022-10-16T07:15:02;21.80;68.70
28548;DHT22;15750;49.600;8.746;2022-10-16T07:17:30;21.80;68.70
28548;DHT22;15750;49.600;8.746;2022-10-16T07:19:59;21.80;68.70
28548;DHT22;15750;49.600;8.746;2022-10-16T07:22:29;21.80;68.70
28548;DHT22;15750;49.600;8.746;2022-10-16T07:24:58;21.80;68.90
28548;DHT22;15750;49.600;8.746;2022-10-16T07:27:28;21.80;68.90
28548;DHT22;15750;49.600;8.746;2022-10-16T07:29:56;21.80;68.90
28548;DHT22;15750;49.600;8.746;2022-10-16T07:32:28;21.80;68.90
28548;DHT22;15750;49.600;8.746;2022-10-16T07:34:58;21.80;69.80
28548;DHT22;15750;49.600;8.746;2022-10-16T07:37:27;21.80;68.90
28548;DHT22;15750;49.600;8.746;2022-10-16T07:39:57;21.80;69.00
28548;DHT22;15750;49.600;8.746;2022-10-16T07:42:27;21.80;68.90
28548;DHT22;15750;49.600;8.746;2022-10-16T07:44:56;21.80;68.80
28548;DHT22;15750;49.600;8.746;2022-10-16T07:47:25;21.80;69.00
28548;DHT22;15750;49.600;8.746;2022-10-16T07:49:54;21.80;68.90
28548;DHT22;15750;49.600;8.746;2022-10-16T07:52:23;21.80;68.90
28548;DHT22;15750;49.600;8.746;2022-10-16T07:54:53;21.90;68.80
28548;DHT22;15750;49.600;8.746;2022-10-16T07:57:26;21.90;69.00
28548;DHT22;15750;49.600;8.746;2022-10-16T07:59:56;21.90;69.00
28548;DHT22;15750;49.600;8.746;2022-10-16T08:02:24;21.90;69.00
28548;DHT22;15750;49.600;8.746;2022-10-16T08:04:53;21.90;68.80
28548;DHT22;15750;49.600;8.746;2022-10-16T08:07:22;21.90;69.10
28548;DHT22;15750;49.600;8.746;2022-10-16T08:09:52;21.90;69.20
28548;DHT22;15750;49.600;8.746;2022-10-16T08:12:23;21.90;69.20
28548;DHT22;15750;49.600;8.746;2022-10-16T08:14:52;21.90;69.20
28548;DHT22;15750;49.600;8.746;2022-10-16T08:17:20;22.00;69.20
28548;DHT22;15750;49.600;8.746;2022-10-16T08:19:49;22.00;69.20
28548;DHT22;15750;49.600;8.746;2022-10-16T08:22:18;22.00;69.30
28548;DHT22;15750;49.600;8.746;2022-10-16T08:24:47;22.00;69.40
28548;DHT22;15750;49.600;8.746;2022-10-16T08:27:17;22.00;69.30
28548;DHT22;15750;49.600;8.746;2022-10-16T08:29:46;22.00;69.50
28548;DHT22;15750;49.600;8.746;2022-10-16T08:32:14;22.00;69.50
28548;DHT22;15750;49.600;8.746;2022-10-16T08:34:43;22.00;69.60
28548;DHT22;15750;49.600;8.746;2022-10-16T08:37:11;22.00;69.60
28548;DHT22;15750;49.600;8.746;2022-10-16T08:39:40;22.00;69.50
28548;DHT22;15750;49.600;8.746;2022-10-16T08:42:21;22.00;69.50
28548;DHT22;15750;49.600;8.746;2022-10-16T08:45:15;22.00;69.50
28548;DHT22;15750;49.600;8.746;2022-10-16T08:47:56;22.10;69.60
28548;DHT22;15750;49.600;8.746;2022-10-16T08:50:32;22.10;69.30
28548;DHT22;15750;49.600;8.746;2022-10-16T08:53:01;22.10;69.20
28548;DHT22;15750;49.600;8.746;2022-10-16T08:55:38;22.10;69.40
28548;DHT22;15750;49.600;8.746;2022-10-16T08:58:14;22.10;69.70
28548;DHT22;15750;49.600;8.746;2022-10-16T09:00:47;22.10;69.70
28548;DHT22;15750;49.600;8.746;2022-10-16T09:03:33;22.10;69.60
28548;DHT22;15750;49.600;8.746;2022-10-16T09:06:21;22.10;69.70
28548;DHT22;15750;49.600;8.746;2022-10-16T09:09:11;22.10;69.60
28548;DHT22;15750;49.600;8.746;2022-10-16T09:11:52;22.10;69.80
28548;DHT22;15750;49.600;8.746;2022-10-16T09:14:40;22.10;69.70
28548;DHT22;15750;49.600;8.746;2022-10-16T09:17:25;22.10;70.00
28548;DHT22;15750;49.600;8.746;2022-10-16T09:20:19;22.10;69.90
28548;DHT22;15750;49.600;8.746;2022-10-16T09:22:55;22.10;69.80
28548;DHT22;15750;49.600;8.746;2022-10-16T09:25:44;22.10;69.60
28548;DHT22;15750;49.600;8.746;2022-10-16T09:28:16;22.10;69.40
28548;DHT22;15750;49.600;8.746;2022-10-16T09:30:47;22.10;69.60
28548;DHT22;15750;49.600;8.746;2022-10-16T09:33:19;22.00;69.60
28548;DHT22;15750;49.600;8.746;2022-10-16T09:35:50;22.00;69.60
28548;DHT22;15750;49.600;8.746;2022-10-16T09:38:27;22.00;69.60
28548;DHT22;15750;49.600;8.746;2022-10-16T09:40:58;22.00;69.70
28548;DHT22;15750;49.600;8.746;2022-10-16T09:43:34;22.00;69.60
28548;DHT22;15750;49.600;8.746;2022-10-16T09:46:21;22.00;69.80
28548;DHT22;15750;49.600;8.746;2022-10-16T09:48:55;22.00;70.00
28548;DHT22;15750;49.600;8.746;2022-10-16T09:51:28;22.00;70.10
28548;DHT22;15750;49.600;8.746;2022-10-16T09:53:59;22.00;70.30
28548;DHT22;15750;49.600;8.746;2022-10-16T09:56:30;22.10;70.40
28548;DHT22;15750;49.600;8.746;2022-10-16T09:59:08;22.10;70.40
28548;DHT22;15750;49.600;8.746;2022-10-16T10:01:41;22.10;70.40
28548;DHT22;15750;49.600;8.746;2022-10-16T10:04:14;22.10;70.40
28548;DHT22;15750;49.600;8.746;2022-10-16T10:06:44;22.10;70.30
28548;DHT22;15750;49.600;8.746;2022-10-16T10:09:19;22.10;71.20
28548;DHT22;15750;49.600;8.746;2022-10-16T10:11:51;22.10;70.50
28548;DHT22;15750;49.600;8.746;2022-10-16T10:14:24;22.20;70.50
28548;DHT22;15750;49.600;8.746;2022-10-16T10:17:13;22.20;70.80
28548;DHT22;15750;49.600;8.746;2022-10-16T10:19:48;22.20;71.10
28548;DHT22;15750;49.600;8.746;2022-10-16T10:22:32;22.20;71.00
28548;DHT22;15750;49.600;8.746;2022-10-16T10:25:26;22.30;71.50
28548;DHT22;15750;49.600;8.746;2022-10-16T10:28:10;22.30;72.00
28548;DHT22;15750;49.600;8.746;2022-10-16T10:30:54;22.30;71.90
28548;DHT22;15750;49.600;8.746;2022-10-16T10:33:31;22.40;72.30
28548;DHT22;15750;49.600;8.746;2022-10-16T10:36:15;22.40;72.00
28548;DHT22;15750;49.600;8.746;2022-10-16T10:38:54;22.40;72.30
28548;DHT22;15750;49.600;8.746;2022-10-16T10:41:52;22.50;72.10
28548;DHT22;15750;49.600;8.746;2022-10-16T10:44:42;22.50;72.70
28548;DHT22;15750;49.600;8.746;2022-10-16T10:47:27;22.60;72.40
28548;DHT22;15750;49.600;8.746;2022-10-16T10:50:10;22.60;72.30
28548;DHT22;15750;49.600;8.746;2022-10-16T10:52:51;22.60;72.40
28548;DHT22;15750;49.600;8.746;2022-10-16T10:55:31;22.70;72.50
28548;DHT22;15750;49.600;8.746;2022-10-16T10:58:29;22.70;72.30
28548;DHT22;15750;49.600;8.746;2022-10-16T11:01:22;22.70;72.40
28548;DHT22;15750;49.600;8.746;2022-10-16T11:07:00;22.80;72.90
28548;DHT22;15750;49.600;8.746;2022-10-16T11:09:34;22.80;72.60
28548;DHT22;15750;49.600;8.746;2022-10-16T11:12:07;22.90;72.40
28548;DHT22;15750;49.600;8.746;2022-10-16T11:14:44;22.90;72.40
28548;DHT22;15750;49.600;8.746;2022-10-16T11:17:19;22.90;72.40
28548;DHT22;15750;49.600;8.746;2022-10-16T11:19:55;22.90;72.40
28548;DHT22;15750;49.600;8.746;2022-10-16T11:22:32;22.90;72.30
28548;DHT22;15750;49.600;8.746;2022-10-16T11:25:06;22.90;72.20
28548;DHT22;15750;49.600;8.746;2022-10-16T11:27:44;23.00;72.70
28548;DHT22;15750;49.600;8.746;2022-10-16T11:30:18;23.00;72.40
28548;DHT22;15750;49.600;8.746;2022-10-16T11:32:56;23.00;72.40
28548;DHT22;15750;49.600;8.746;2022-10-16T11:35:42;23.00;72.60
28548;DHT22;15750;49.600;8.746;2022-10-16T11:38:20;23.00;72.70
28548;DHT22;15750;49.600;8.746;2022-10-16T11:40:58;23.10;72.70
28548;DHT22;15750;49.600;8.746;2022-10-16T11:43:34;23.10;72.80
28548;DHT22;15750;49.600;8.746;2022-10-16T11:46:10;23.10;72.70
28548;DHT22;15750;49.600;8.746;2022-10-16T11:48:45;23.10;72.70
28548;DHT22;15750;49.600;8.746;2022-10-16T11:51:21;23.10;72.60
28548;DHT22;15750;49.600;8.746;2022-10-16T11:53:59;23.10;72.70
28548;DHT22;15750;49.600;8.746;2022-10-16T11:56:32;23.20;72.80
28548;DHT22;15750;49.600;8.746;2022-10-16T11:59:08;23.10;72.50
28548;DHT22;15750;49.600;8.746;2022-10-16T12:01:46;23.20;72.70
28548;DHT22;15750;49.600;8.746;2022-10-16T12:04:23;23.20;72.60
28548;DHT22;15750;49.600;8.746;2022-10-16T12:06:59;23.20;72.60
28548;DHT22;15750;49.600;8.746;2022-10-16T12:09:34;23.30;72.70
28548;DHT22;15750;49.600;8.746;2022-10-16T12:12:24;23.30;72.40
28548;DHT22;15750;49.600;8.746;2022-10-16T12:15:02;23.30;72.30
28548;DHT22;15750;49.600;8.746;2022-10-16T12:18:01;23.30;72.30
28548;DHT22;15750;49.600;8.746;2022-10-16T12:20:31;23.30;72.00
28548;DHT22;15750;49.600;8.746;2022-10-16T12:23:04;23.30;71.70
28548;DHT22;15750;49.600;8.746;2022-10-16T12:25:36;23.30;71.60
28548;DHT22;15750;49.600;8.746;2022-10-16T12:28:20;23.30;71.60
28548;DHT22;15750;49.600;8.746;2022-10-16T12:30:54;23.30;71.40
28548;DHT22;15750;49.600;8.746;2022-10-16T12:33:25;23.30;71.40
28548;DHT22;15750;49.600;8.746;2022-10-16T12:35:56;23.30;71.40
28548;DHT22;15750;49.600;8.746;2022-10-16T12:38:27;23.30;71.30
28548;DHT22;15750;49.600;8.746;2022-10-16T12:41:00;23.30;71.20
28548;DHT22;15750;49.600;8.746;2022-10-16T12:43:40;23.30;71.40
28548;DHT22;15750;49.600;8.746;2022-10-16T12:46:33;23.30;71.20
28548;DHT22;15750;49.600;8.746;2022-10-16T12:49:29;23.30;71.30
28548;DHT22;15750;49.600;8.746;2022-10-16T12:51:59;23.30;70.90
28548;DHT22;15750;49.600;8.746;2022-10-16T12:54:29;23.30;70.80
28548;DHT22;15750;49.600;8.746;2022-10-16T12:57:09;23.30;70.90
28548;DHT22;15750;49.600;8.746;2022-10-16T12:59:55;23.30;70.90
28548;DHT22;15750;49.600;8.746;2022-10-16T13:05:58;23.30;71.10
28548;DHT22;15750;49.600;8.746;2022-10-16T13:08:45;23.30;71.00
28548;DHT22;15750;49.600;8.746;2022-10-16T13:11:43;23.30;71.10
28548;DHT22;15750;49.600;8.746;2022-10-16T13:17:40;23.30;71.20
28548;DHT22;15750;49.600;8.746;2022-10-16T13:20:19;23.30;71.10
28548;DHT22;15750;49.600;8.746;2022-10-16T13:22:58;23.30;71.20
28548;DHT22;15750;49.600;8.746;2022-10-16T13:25:40;23.20;71.20
28548;DHT22;15750;49.600;8.746;2022-10-16T13:28:18;23.30;71.60
28548;DHT22;15750;49.600;8.746;2022-10-16T13:30:53;23.20;71.20
28548;DHT22;15750;49.600;8.746;2022-10-16T13:33:30;23.20;71.20
28548;DHT22;15750;49.600;8.746;2022-10-16T13:36:01;23.20;71.30
28548;DHT22;15750;49.600;8.746;2022-10-16T13:38:34;23.20;71.30
28548;DHT22;15750;49.600;8.746;2022-10-16T13:41:05;23.20;71.20
28548;DHT22;15750;49.600;8.746;2022-10-16T13:43:35;23.20;71.10
28548;DHT22;15750;49.600;8.746;2022-10-16T13:46:12;23.20;71.20
28548;DHT22;15750;49.600;8.746;2022-10-16T13:48:42;23.20;71.30
28548;DHT22;15750;49.600;8.746;2022-10-16T13:51:13;23.20;71.20
28548;DHT22;15750;49.600;8.746;2022-10-16T13:53:43;23.20;71.30
28548;DHT22;15750;49.600;8.746;2022-10-16T13:56:14;23.20;71.30
28548;DHT22;15750;49.600;8.746;2022-10-16T13:58:44;23.20;71.30
28548;DHT22;15750;49.600;8.746;2022-10-16T14:01:20;23.20;71.20
28548;DHT22;15750;49.600;8.746;2022-10-16T14:04:03;23.20;71.60
28548;DHT22;15750;49.600;8.746;2022-10-16T14:06:33;23.20;71.50
28548;DHT22;15750;49.600;8.746;2022-10-16T14:09:06;23.20;71.50
28548;DHT22;15750;49.600;8.746;2022-10-16T14:11:46;23.10;71.50
28548;DHT22;15750;49.600;8.746;2022-10-16T14:14:18;23.20;71.70
28548;DHT22;15750;49.600;8.746;2022-10-16T14:16:49;23.20;71.50
28548;DHT22;15750;49.600;8.746;2022-10-16T14:19:20;23.20;71.60
28548;DHT22;15750;49.600;8.746;2022-10-16T14:21:51;23.10;71.70
28548;DHT22;15750;49.600;8.746;2022-10-16T14:24:27;23.10;71.90
28548;DHT22;15750;49.600;8.746;2022-10-16T14:27:00;23.10;72.20
28548;DHT22;15750;49.600;8.746;2022-10-16T14:29:30;23.10;71.80
28548;DHT22;15750;49.600;8.746;2022-10-16T14:32:03;23.10;71.70
28548;DHT22;15750;49.600;8.746;2022-10-16T14:34:54;23.20;71.90
28548;DHT22;15750;49.600;8.746;2022-10-16T14:37:24;23.10;71.70
28548;DHT22;15750;49.600;8.746;2022-10-16T14:39:55;23.20;71.70
28548;DHT22;15750;49.600;8.746;2022-10-16T14:42:25;23.10;71.60
28548;DHT22;15750;49.600;8.746;2022-10-16T14:44:54;23.10;71.60
28548;DHT22;15750;49.600;8.746;2022-10-16T14:47:26;23.10;71.70
28548;DHT22;15750;49.600;8.746;2022-10-16T14:49:55;23.10;71.60
28548;DHT22;15750;49.600;8.746;2022-10-16T14:52:26;23.10;71.50
28548;DHT22;15750;49.600;8.746;2022-10-16T14:54:54;23.10;71.50
28548;DHT22;15750;49.600;8.746;2022-10-16T14:57:27;23.10;71.50
28548;DHT22;15750;49.600;8.746;2022-10-16T15:00:00;23.10;71.60
28548;DHT22;15750;49.600;8.746;2022-10-16T15:02:31;23.10;71.50
28548;DHT22;15750;49.600;8.746;2022-10-16T15:05:12;23.10;71.40
28548;DHT22;15750;49.600;8.746;2022-10-16T15:07:43;23.10;71.50
28548;DHT22;15750;49.600;8.746;2022-10-16T15:10:13;23.10;71.40
28548;DHT22;15750;49.600;8.746;2022-10-16T15:12:43;23.10;71.40
28548;DHT22;15750;49.600;8.746;2022-10-16T15:15:33;23.10;71.50
28548;DHT22;15750;49.600;8.746;2022-10-16T15:18:04;23.10;71.70
28548;DHT22;15750;49.600;8.746;2022-10-16T15:20:35;23.10;71.50
28548;DHT22;15750;49.600;8.746;2022-10-16T15:23:06;23.10;71.60
28548;DHT22;15750;49.600;8.746;2022-10-16T15:25:45;23.10;71.50
28548;DHT22;15750;49.600;8.746;2022-10-16T15:28:16;23.10;71.50
28548;DHT22;15750;49.600;8.746;2022-10-16T15:30:46;23.10;71.50
28548;DHT22;15750;49.600;8.746;2022-10-16T15:33:18;23.10;71.50
28548;DHT22;15750;49.600;8.746;2022-10-16T15:35:49;23.10;71.60
28548;DHT22;15750;49.600;8.746;2022-10-16T15:38:20;23.10;71.50
28548;DHT22;15750;49.600;8.746;2022-10-16T15:40:50;23.10;71.40
28548;DHT22;15750;49.600;8.746;2022-10-16T15:43:18;23.10;71.40
28548;DHT22;15750;49.600;8.746;2022-10-16T15:45:58;23.10;71.40
28548;DHT22;15750;49.600;8.746;2022-10-16T15:48:31;23.00;71.30
28548;DHT22;15750;49.600;8.746;2022-10-16T15:51:00;23.10;71.30
28548;DHT22;15750;49.600;8.746;2022-10-16T15:53:29;23.10;71.20
28548;DHT22;15750;49.600;8.746;2022-10-16T15:55:58;23.10;71.20
28548;DHT22;15750;49.600;8.746;2022-10-16T15:58:29;23.00;71.20
28548;DHT22;15750;49.600;8.746;2022-10-16T16:00:59;23.10;71.20
28548;DHT22;15750;49.600;8.746;2022-10-16T16:03:32;23.10;71.20
28548;DHT22;15750;49.600;8.746;2022-10-16T16:06:04;23.00;71.10
28548;DHT22;15750;49.600;8.746;2022-10-16T16:08:34;23.00;71.00
28548;DHT22;15750;49.600;8.746;2022-10-16T16:11:04;23.00;71.00
28548;DHT22;15750;49.600;8.746;2022-10-16T16:13:35;23.00;71.00
28548;DHT22;15750;49.600;8.746;2022-10-16T16:16:06;23.00;71.00
28548;DHT22;15750;49.600;8.746;2022-10-16T16:18:37;23.00;71.00
28548;DHT22;15750;49.600;8.746;2022-10-16T16:21:06;23.00;71.80
28548;DHT22;15750;49.600;8.746;2022-10-16T16:23:36;23.00;71.00
28548;DHT22;15750;49.600;8.746;2022-10-16T16:26:06;23.00;70.90
28548;DHT22;15750;49.600;8.746;2022-10-16T16:28:38;23.00;70.80
28548;DHT22;15750;49.600;8.746;2022-10-16T16:31:08;23.00;70.80
28548;DHT22;15750;49.600;8.746;2022-10-16T16:33:38;23.00;70.70
28548;DHT22;15750;49.600;8.746;2022-10-16T16:36:07;22.90;70.50
28548;DHT22;15750;49.600;8.746;2022-10-16T16:38:41;22.90;70.60
28548;DHT22;15750;49.600;8.746;2022-10-16T16:41:11;22.90;70.50
28548;DHT22;15750;49.600;8.746;2022-10-16T16:43:41;22.90;70.40
28548;DHT22;15750;49.600;8.746;2022-10-16T16:46:11;22.90;70.20
28548;DHT22;15750;49.600;8.746;2022-10-16T16:48:41;22.90;70.10
28548;DHT22;15750;49.600;8.746;2022-10-16T16:51:12;22.90;70.00
28548;DHT22;15750;49.600;8.746;2022-10-16T16:53:43;22.90;69.90
28548;DHT22;15750;49.600;8.746;2022-10-16T16:56:13;22.90;69.90